sensor_id;sensor_type;location;lat;lon;timestamp;pressure;altitude;pressure_sealevel;temperature;humidity
76052;BME280;64751;48.708;9.710;2023-05-16T14:32:47;97521.31;;;12.73;73.21
76052;BME280;64751;48.708;9.710;2023-05-16T14:35:14;97534.34;;;12.70;72.41
76052;BME280;64751;48.708;9.710;2023-05-16T14:37:42;97522.88;;;12.74;72.66
76052;BME280;64751;48.708;9.710;2023-05-16T14:40:10;97524.75;;;12.74;72.25
76052;BME280;64751;48.708;9.710;2023-05-16T14:42:38;97533.97;;;12.76;72.38
76052;BME280;64751;48.708;9.710;2023-05-16T14:45:06;97538.50;;;12.76;71.54
76052;BME280;64751;48.708;9.710;2023-05-16T14:47:34;97535.28;;;12.60;70.59
76052;BME280;64751;48.708;9.710;2023-05-16T14:50:04;97539.34;;;12.71;72.04
76052;BME280;64751;48.708;9.710;2023-05-16T14:52:32;97541.94;;;12.76;70.54
76052;BME280;64751;48.708;9.710;2023-05-16T14:55:00;97547.94;;;12.82;70.61
76052;BME280;64751;48.708;9.710;2023-05-16T14:57:27;97541.19;;;12.89;69.71
76052;BME280;64751;48.708;9.710;2023-05-16T14:59:55;97544.53;;;12.95;70.14
76052;BME280;64751;48.708;9.710;2023-05-16T15:02:23;97545.59;;;12.94;69.75
76052;BME280;64751;48.708;9.710;2023-05-16T15:04:51;97547.28;;;12.90;68.83
76052;BME280;64751;48.708;9.710;2023-05-16T15:07:21;97546.97;;;12.91;69.56
76052;BME280;64751;48.708;9.710;2023-05-16T15:09:48;97538.63;;;12.84;69.38
76052;BME280;64751;48.708;9.710;2023-05-16T15:12:16;97549.94;;;12.90;69.98
76052;BME280;64751;48.708;9.710;2023-05-16T15:14:43;97551.88;;;12.84;69.98
76052;BME280;64751;48.708;9.710;2023-05-16T15:17:11;97552.56;;;12.90;69.54
76052;BME280;64751;48.708;9.710;2023-05-16T15:19:39;97553.28;;;12.95;70.29
76052;BME280;64751;48.708;9.710;2023-05-16T15:22:07;97550.41;;;12.92;69.14
76052;BME280;64751;48.708;9.710;2023-05-16T15:24:37;97561.34;;;13.04;69.55
76052;BME280;64751;48.708;9.710;2023-05-16T15:27:05;97558.34;;;13.11;69.32
76052;BME280;64751;48.708;9.710;2023-05-16T15:29:33;97552.34;;;13.05;68.07
76052;BME280;64751;48.708;9.710;2023-05-16T15:32:03;97558.97;;;13.02;69.10
76052;BME280;64751;48.708;9.710;2023-05-16T15:34:32;97555.00;;;13.05;69.58
76052;BME280;64751;48.708;9.710;2023-05-16T15:36:59;97563.97;;;13.09;69.60
76052;BME280;64751;48.708;9.710;2023-05-16T15:39:27;97559.50;;;13.04;68.34
76052;BME280;64751;48.708;9.710;2023-05-16T15:41:56;97553.47;;;12.99;68.48
76052;BME280;64751;48.708;9.710;2023-05-16T15:44:24;97560.56;;;13.03;68.83
76052;BME280;64751;48.708;9.710;2023-05-16T15:46:51;97562.38;;;13.08;69.35
76052;BME280;64751;48.708;9.710;2023-05-16T15:49:19;97569.94;;;13.15;69.60
76052;BME280;64751;48.708;9.710;2023-05-16T15:51:47;97564.06;;;13.18;68.51
76052;BME280;64751;48.708;9.710;2023-05-16T15:54:14;97552.97;;;13.16;68.94
76052;BME280;64751;48.708;9.710;2023-05-16T15:56:42;97562.50;;;13.17;69.20
76052;BME280;64751;48.708;9.710;2023-05-16T15:59:11;97562.41;;;13.03;66.45
76052;BME280;64751;48.708;9.710;2023-05-16T16:01:38;97562.69;;;13.06;69.18
76052;BME280;64751;48.708;9.710;2023-05-16T16:04:06;97552.13;;;13.01;69.62
76052;BME280;64751;48.708;9.710;2023-05-16T16:06:34;97564.38;;;12.97;69.26
76052;BME280;64751;48.708;9.710;2023-05-16T16:09:01;97555.94;;;12.95;69.11
76052;BME280;64751;48.708;9.710;2023-05-16T16:11:29;97562.88;;;12.91;69.34
76052;BME280;64751;48.708;9.710;2023-05-16T16:13:57;97567.78;;;12.84;68.78
76052;BME280;64751;48.708;9.710;2023-05-16T16:16:25;97567.56;;;12.81;69.14
76052;BME280;64751;48.708;9.710;2023-05-16T16:18:53;97564.13;;;12.80;69.78
76052;BME280;64751;48.708;9.710;2023-05-16T16:21:21;97565.47;;;12.78;69.14
76052;BME280;64751;48.708;9.710;2023-05-16T16:23:49;97567.44;;;12.72;69.14
76052;BME280;64751;48.708;9.710;2023-05-16T16:26:16;97577.75;;;12.74;68.93
76052;BME280;64751;48.708;9.710;2023-05-16T16:28:44;97573.22;;;12.74;69.43
76052;BME280;64751;48.708;9.710;2023-05-16T16:31:11;97581.38;;;12.78;70.52
76052;BME280;64751;48.708;9.710;2023-05-16T16:33:40;97572.66;;;12.77;69.38
76052;BME280;64751;48.708;9.710;2023-05-16T16:36:08;97574.88;;;12.70;68.74
76052;BME280;64751;48.708;9.710;2023-05-16T16:38:36;97568.97;;;12.60;68.83
76052;BME280;64751;48.708;9.710;2023-05-16T16:41:04;97576.56;;;12.66;69.18
76052;BME280;64751;48.708;9.710;2023-05-16T16:43:31;97582.91;;;12.65;68.78
76052;BME280;64751;48.708;9.710;2023-05-16T16:45:59;97589.88;;;12.61;68.14
76052;BME280;64751;48.708;9.710;2023-05-16T16:48:26;97587.41;;;12.65;68.88
76052;BME280;64751;48.708;9.710;2023-05-16T16:50:55;97589.56;;;12.63;68.94
76052;BME280;64751;48.708;9.710;2023-05-16T16:53:23;97587.00;;;12.58;66.97
76052;BME280;64751;48.708;9.710;2023-05-16T16:55:51;97594.06;;;12.62;68.39
76052;BME280;64751;48.708;9.710;2023-05-16T16:58:19;97598.13;;;12.60;68.58
76052;BME280;64751;48.708;9.710;2023-05-16T17:00:47;97595.97;;;12.62;68.23
76052;BME280;64751;48.708;9.710;2023-05-16T17:03:14;97605.91;;;12.51;67.59
76052;BME280;64751;48.708;9.710;2023-05-16T17:05:42;97611.00;;;12.48;66.84
76052;BME280;64751;48.708;9.710;2023-05-16T17:08:12;97611.34;;;12.41;67.26
76052;BME280;64751;48.708;9.710;2023-05-16T17:10:40;97616.16;;;12.39;66.39
76052;BME280;64751;48.708;9.710;2023-05-16T17:13:08;97622.00;;;12.36;67.21
76052;BME280;64751;48.708;9.710;2023-05-16T17:15:39;97620.44;;;12.35;66.61
76052;BME280;64751;48.708;9.710;2023-05-16T17:18:09;97627.31;;;12.36;67.78
76052;BME280;64751;48.708;9.710;2023-05-16T17:20:37;97634.38;;;12.41;67.88
76052;BME280;64751;48.708;9.710;2023-05-16T17:23:05;97643.34;;;12.45;68.42
76052;BME280;64751;48.708;9.710;2023-05-16T17:25:35;97638.13;;;12.40;66.33
76052;BME280;64751;48.708;9.710;2023-05-16T17:28:03;97640.78;;;12.40;66.67
76052;BME280;64751;48.708;9.710;2023-05-16T17:30:31;97640.47;;;12.41;66.46
76052;BME280;64751;48.708;9.710;2023-05-16T17:32:59;97639.69;;;12.41;66.51
76052;BME280;64751;48.708;9.710;2023-05-16T17:35:27;97632.84;;;12.40;66.81
76052;BME280;64751;48.708;9.710;2023-05-16T17:37:54;97636.75;;;12.42;67.58
76052;BME280;64751;48.708;9.710;2023-05-16T17:40:22;97639.25;;;12.33;67.99
76052;BME280;64751;48.708;9.710;2023-05-16T17:42:51;97637.69;;;12.32;66.85
76052;BME280;64751;48.708;9.710;2023-05-16T17:45:18;97645.13;;;12.30;67.16
76052;BME280;64751;48.708;9.710;2023-05-16T17:47:46;97639.53;;;12.32;67.98
76052;BME280;64751;48.708;9.710;2023-05-16T17:50:14;97648.03;;;12.29;66.38
76052;BME280;64751;48.708;9.710;2023-05-16T17:52:41;97654.44;;;12.28;65.72
76052;BME280;64751;48.708;9.710;2023-05-16T17:55:09;97653.34;;;12.29;66.58
76052;BME280;64751;48.708;9.710;2023-05-16T17:57:37;97655.78;;;12.25;65.95
76052;BME280;64751;48.708;9.710;2023-05-16T18:00:08;97656.03;;;12.24;66.17
76052;BME280;64751;48.708;9.710;2023-05-16T18:02:37;97659.22;;;12.26;66.63
76052;BME280;64751;48.708;9.710;2023-05-16T18:05:05;97659.22;;;12.26;66.48
76052;BME280;64751;48.708;9.710;2023-05-16T18:07:33;97662.94;;;12.25;66.80
76052;BME280;64751;48.708;9.710;2023-05-16T18:10:01;97668.22;;;12.25;66.42
76052;BME280;64751;48.708;9.710;2023-05-16T18:12:29;97668.78;;;12.22;65.08
76052;BME280;64751;48.708;9.710;2023-05-16T18:14:57;97685.69;;;12.26;67.04
76052;BME280;64751;48.708;9.710;2023-05-16T18:17:26;97671.72;;;12.20;67.67
76052;BME280;64751;48.708;9.710;2023-05-16T18:19:54;97684.63;;;12.27;66.59
76052;BME280;64751;48.708;9.710;2023-05-16T18:22:22;97676.22;;;12.20;66.80
76052;BME280;64751;48.708;9.710;2023-05-16T18:24:49;97688.84;;;12.28;67.74
76052;BME280;64751;48.708;9.710;2023-05-16T18:27:17;97694.19;;;12.23;66.24
76052;BME280;64751;48.708;9.710;2023-05-16T18:29:45;97699.00;;;12.21;65.90
76052;BME280;64751;48.708;9.710;2023-05-16T18:32:13;97699.50;;;12.23;67.82
76052;BME280;64751;48.708;9.710;2023-05-16T18:34:42;97693.25;;;12.14;65.96
76052;BME280;64751;48.708;9.710;2023-05-16T18:37:10;97701.41;;;12.17;67.54
76052;BME280;64751;48.708;9.710;2023-05-16T18:39:38;97706.69;;;12.17;67.23
76052;BME280;64751;48.708;9.710;2023-05-16T18:42:06;97703.84;;;12.14;68.31
76052;BME280;64751;48.708;9.710;2023-05-16T18:44:34;97706.47;;;12.14;68.38
76052;BME280;64751;48.708;9.710;2023-05-16T18:47:02;97706.78;;;12.12;68.70
76052;BME280;64751;48.708;9.710;2023-05-16T18:49:30;97705.19;;;12.11;67.71
76052;BME280;64751;48.708;9.710;2023-05-16T18:52:00;97705.97;;;12.12;68.75
76052;BME280;64751;48.708;9.710;2023-05-16T18:54:28;97693.34;;;12.04;69.34
76052;BME280;64751;48.708;9.710;2023-05-16T18:56:55;97702.59;;;12.06;68.88
76052;BME280;64751;48.708;9.710;2023-05-16T18:59:23;97709.00;;;12.00;68.22
76052;BME280;64751;48.708;9.710;2023-05-16T19:01:51;97710.06;;;11.99;68.80
76052;BME280;64751;48.708;9.710;2023-05-16T19:04:18;97717.78;;;11.96;69.10
76052;BME280;64751;48.708;9.710;2023-05-16T19:06:46;97716.78;;;11.92;69.10
76052;BME280;64751;48.708;9.710;2023-05-16T19:09:15;97711.56;;;11.82;69.26
76052;BME280;64751;48.708;9.710;2023-05-16T19:11:43;97716.09;;;11.81;69.75
76052;BME280;64751;48.708;9.710;2023-05-16T19:14:11;97716.13;;;11.76;69.73
76052;BME280;64751;48.708;9.710;2023-05-16T19:16:39;97716.97;;;11.72;69.62
76052;BME280;64751;48.708;9.710;2023-05-16T19:19:07;97725.97;;;11.71;70.18
76052;BME280;64751;48.708;9.710;2023-05-16T19:21:34;97721.25;;;11.68;70.57
76052;BME280;64751;48.708;9.710;2023-05-16T19:24:03;97730.75;;;11.63;69.76
76052;BME280;64751;48.708;9.710;2023-05-16T19:26:32;97733.97;;;11.60;70.85
76052;BME280;64751;48.708;9.710;2023-05-16T19:29:00;97734.00;;;11.55;71.19
76052;BME280;64751;48.708;9.710;2023-05-16T19:31:27;97743.06;;;11.49;71.01
76052;BME280;64751;48.708;9.710;2023-05-16T19:33:55;97748.88;;;11.46;71.59
76052;BME280;64751;48.708;9.710;2023-05-16T19:36:23;97751.56;;;11.41;71.93
76052;BME280;64751;48.708;9.710;2023-05-16T19:38:50;97739.16;;;11.37;70.99
76052;BME280;64751;48.708;9.710;2023-05-16T19:41:18;97743.16;;;11.34;71.47
76052;BME280;64751;48.708;9.710;2023-05-16T19:43:48;97741.06;;;11.31;70.67
76052;BME280;64751;48.708;9.710;2023-05-16T19:46:15;97754.84;;;11.28;71.50
76052;BME280;64751;48.708;9.710;2023-05-16T19:48:43;97757.28;;;11.20;71.78
76052;BME280;64751;48.708;9.710;2023-05-16T19:51:11;97748.88;;;11.13;71.86
76052;BME280;64751;48.708;9.710;2023-05-16T19:53:38;97764.09;;;11.26;83.41
76052;BME280;64751;48.708;9.710;2023-05-16T19:56:06;97762.50;;;12.26;100.00
76052;BME280;64751;48.708;9.710;2023-05-16T19:58:34;97769.41;;;12.69;100.00
76052;BME280;64751;48.708;9.710;2023-05-16T20:01:04;97768.78;;;12.96;100.00
76052;BME280;64751;48.708;9.710;2023-05-16T20:03:31;97772.13;;;13.25;100.00
76052;BME280;64751;48.708;9.710;2023-05-16T20:05:59;97768.34;;;13.13;100.00
76052;BME280;64751;48.708;9.710;2023-05-16T20:08:27;97780.94;;;13.21;100.00
76052;BME280;64751;48.708;9.710;2023-05-16T20:10:54;97773.41;;;13.28;100.00
76052;BME280;64751;48.708;9.710;2023-05-16T20:13:22;97786.44;;;13.43;100.00
76052;BME280;64751;48.708;9.710;2023-05-16T20:15:51;97755.31;;;12.92;100.00
76052;BME280;64751;48.708;9.710;2023-05-16T20:18:20;97777.97;;;12.61;100.00
76052;BME280;64751;48.708;9.710;2023-05-16T20:20:48;97793.63;;;12.81;100.00
76052;BME280;64751;48.708;9.710;2023-05-16T20:23:15;97794.00;;;13.17;100.00
76052;BME280;64751;48.708;9.710;2023-05-16T20:25:43;97795.19;;;13.43;100.00
76052;BME280;64751;48.708;9.710;2023-05-16T20:28:11;97793.41;;;13.39;100.00
76052;BME280;64751;48.708;9.710;2023-05-16T20:30:39;97798.72;;;13.39;100.00
76052;BME280;64751;48.708;9.710;2023-05-16T20:33:06;97781.66;;;13.07;100.00
76052;BME280;64751;48.708;9.710;2023-05-16T20:35:36;97802.38;;;13.05;100.00
76052;BME280;64751;48.708;9.710;2023-05-16T20:38:03;97803.84;;;12.93;100.00
76052;BME280;64751;48.708;9.710;2023-05-16T20:40:31;97803.00;;;12.50;94.65
76052;BME280;64751;48.708;9.710;2023-05-16T20:42:59;97812.84;;;12.21;88.09
76052;BME280;64751;48.708;9.710;2023-05-16T20:45:26;97812.53;;;11.99;87.03
76052;BME280;64751;48.708;9.710;2023-05-16T20:47:56;97804.47;;;11.80;86.86
76052;BME280;64751;48.708;9.710;2023-05-16T20:50:23;97814.03;;;11.76;88.35
76052;BME280;64751;48.708;9.710;2023-05-16T20:52:52;97819.66;;;11.59;77.07
76052;BME280;64751;48.708;9.710;2023-05-16T20:55:20;97815.84;;;11.37;70.91
76052;BME280;64751;48.708;9.710;2023-05-16T20:57:48;97814.09;;;11.22;69.34
76052;BME280;64751;48.708;9.710;2023-05-16T21:00:16;97811.50;;;11.12;71.19
76052;BME280;64751;48.708;9.710;2023-05-16T21:02:44;97821.84;;;11.04;68.01
76052;BME280;64751;48.708;9.710;2023-05-16T21:05:11;97820.53;;;11.01;68.58
76052;BME280;64751;48.708;9.710;2023-05-16T21:07:39;97821.88;;;10.99;67.40
76052;BME280;64751;48.708;9.710;2023-05-16T21:10:09;97835.09;;;10.99;66.94
76052;BME280;64751;48.708;9.710;2023-05-16T21:12:38;97830.59;;;10.99;67.04
76052;BME280;64751;48.708;9.710;2023-05-16T21:15:07;97830.63;;;10.94;64.99
76052;BME280;64751;48.708;9.710;2023-05-16T21:17:34;97834.34;;;10.93;65.07
76052;BME280;64751;48.708;9.710;2023-05-16T21:20:05;97836.97;;;10.93;65.90
76052;BME280;64751;48.708;9.710;2023-05-16T21:22:33;97820.63;;;10.86;65.95
76052;BME280;64751;48.708;9.710;2023-05-16T21:25:01;97836.47;;;10.91;66.09
76052;BME280;64751;48.708;9.710;2023-05-16T21:27:30;97834.06;;;10.89;66.48
76052;BME280;64751;48.708;9.710;2023-05-16T21:29:58;97844.41;;;10.86;66.19
76052;BME280;64751;48.708;9.710;2023-05-16T21:32:25;97837.28;;;10.81;64.88
76052;BME280;64751;48.708;9.710;2023-05-16T21:34:57;97844.41;;;10.81;65.74
76052;BME280;64751;48.708;9.710;2023-05-16T21:37:26;97834.94;;;10.75;64.70
76052;BME280;64751;48.708;9.710;2023-05-16T21:39:53;97843.91;;;10.74;64.90
76052;BME280;64751;48.708;9.710;2023-05-16T21:42:21;97850.78;;;10.75;63.92
76052;BME280;64751;48.708;9.710;2023-05-16T21:44:50;97846.59;;;10.69;64.62
76052;BME280;64751;48.708;9.710;2023-05-16T21:47:17;97855.81;;;10.71;64.66
76052;BME280;64751;48.708;9.710;2023-05-16T21:49:45;97863.19;;;10.69;64.02
76052;BME280;64751;48.708;9.710;2023-05-16T21:52:12;97870.59;;;10.67;63.94
76052;BME280;64751;48.708;9.710;2023-05-16T21:54:40;97852.69;;;10.59;63.04
76052;BME280;64751;48.708;9.710;2023-05-16T21:57:07;97867.72;;;10.64;63.84
76052;BME280;64751;48.708;9.710;2023-05-16T21:59:35;97869.56;;;10.63;64.43
